Time;durP1;ratioP1;P1;durP2;ratioP2;P2;SDS_P1;SDS_P2;PMS_P1;PMS_P2;Temp;Humidity;BMP_temperature;BMP_pressure;BME280_temperature;BME280_humidity;BME280_pressure;Samples;Min_cycle;Max_cycle;Signal;HPM_P1;HPM_P2
2022/09/07 07:54:39;;;;;;;;;;;;;;;16.02;100.00;99471.50;6146312;22;19954;-80
2022/09/07 07:57:05;;;;;;;;;;;;;;;16.27;100.00;99481.28;6272526;22;19919;-83
2022/09/07 07:59:30;;;;;;;;;;;;;;;16.34;100.00;99484.41;6273698;22;20079;-81
2022/09/07 08:01:55;;;;;;;;;;;;;;;16.34;100.00;99482.56;6274448;22;19918;-82
2022/09/07 08:04:21;;;;;;;;;;;;;;;16.55;100.00;99482.00;6275650;22;20484;-82
2022/09/07 08:06:47;;;;;;;;;;;;;;;16.29;100.00;99475.81;6274958;22;19911;-82
2022/09/07 08:09:12;;;;;;;;;;;;;;;16.52;100.00;99483.06;6272210;22;19969;-83
2022/09/07 08:11:39;;;;;;;;;;;;;;;16.24;100.00;99491.34;6274574;22;19911;-81
2022/09/07 08:14:05;;;;;;;;;;;;;;;16.45;100.00;99489.81;6274854;22;19922;-81
2022/09/07 08:16:30;;;;;;;;;;;;;;;16.52;100.00;99493.75;6275177;22;20608;-82
2022/09/07 08:18:56;;;;;;;;;;;;;;;16.36;100.00;99497.66;6274841;22;19915;-82
2022/09/07 08:21:21;;;;;;;;;;;;;;;16.58;100.00;99496.94;6276065;22;19926;-82
2022/09/07 08:23:46;;;;;;;;;;;;;;;16.28;100.00;99495.53;6275273;22;19926;-83
2022/09/07 08:26:12;;;;;;;;;;;;;;;16.52;100.00;99501.78;6277089;22;19998;-84
2022/09/07 08:28:39;;;;;;;;;;;;;;;16.33;100.00;99496.03;6277022;22;19914;-84
2022/09/07 08:31:05;;;;;;;;;;;;;;;16.63;100.00;99489.47;6277045;22;19916;-82
2022/09/07 08:33:31;;;;;;;;;;;;;;;16.52;100.00;99493.75;6276810;22;19916;-82
2022/09/07 08:35:59;;;;;;;;;;;;;;;16.23;100.00;99492.31;6277049;22;19961;-82
2022/09/07 08:38:25;;;;;;;;;;;;;;;16.36;100.00;99489.63;6248072;22;20224;-85
2022/09/07 08:40:50;;;;;;;;;;;;;;;15.97;100.00;99492.31;6277369;22;19949;-82
2022/09/07 08:43:27;;;;;;;;;;;;;;;17.23;100.00;99482.38;6276928;22;19985;-84
2022/09/07 08:45:56;;;;;;;;;;;;;;;16.94;100.00;99492.59;6249658;22;19994;-82
2022/09/07 08:48:26;;;;;;;;;;;;;;;17.10;100.00;99485.09;6277047;22;19919;-83
2022/09/07 08:50:55;;;;;;;;;;;;;;;17.10;100.00;99490.47;6277170;22;19919;-83
2022/09/07 08:53:21;;;;;;;;;;;;;;;17.15;100.00;99485.66;6274106;22;19992;-82
2022/09/07 08:55:51;;;;;;;;;;;;;;;17.82;100.00;99486.78;6276717;22;19953;-83
2022/09/07 08:58:19;;;;;;;;;;;;;;;18.05;100.00;99489.56;6276555;22;19957;-84
2022/09/07 09:00:47;;;;;;;;;;;;;;;17.58;100.00;99493.09;6275016;22;19912;-84
2022/09/07 09:03:19;;;;;;;;;;;;;;;16.89;100.00;99493.75;6276735;22;19923;-84
2022/09/07 09:05:44;;;;;;;;;;;;;;;17.04;100.00;99506.97;6276696;22;20322;-84
2022/09/07 09:08:14;;;;;;;;;;;;;;;16.66;100.00;99505.28;6275574;22;19911;-84
2022/09/07 09:11:01;;;;;;;;;;;;;;;16.78;100.00;99499.03;6275948;22;19986;-84
2022/09/07 09:13:38;;;;;;;;;;;;;;;16.70;100.00;99494.25;6276585;22;20236;-84
2022/09/07 09:16:11;;;;;;;;;;;;;;;16.61;100.00;99497.59;6276617;22;19916;-83
2022/09/07 09:18:42;;;;;;;;;;;;;;;16.78;100.00;99495.50;6276381;22;19961;-84
2022/09/07 09:21:12;;;;;;;;;;;;;;;16.49;100.00;99493.97;6276524;22;19977;-83
2022/09/07 09:23:39;;;;;;;;;;;;;;;16.74;100.00;99502.03;6274452;22;19911;-83
2022/09/07 09:26:13;;;;;;;;;;;;;;;16.39;100.00;99500.97;6275023;22;19915;-83
2022/09/07 09:28:39;;;;;;;;;;;;;;;16.67;100.00;99499.81;6274876;22;19994;-83
2022/09/07 09:31:04;;;;;;;;;;;;;;;16.37;100.00;99502.91;6276626;22;19950;-84
2022/09/07 09:33:29;;;;;;;;;;;;;;;16.58;100.00;99505.84;6275063;22;19964;-83
2022/09/07 09:35:57;;;;;;;;;;;;;;;16.70;100.00;99506.75;6276490;22;19915;-82
2022/09/07 09:38:33;;;;;;;;;;;;;;;16.51;100.00;99505.44;6273372;22;19915;-83
2022/09/07 09:41:03;;;;;;;;;;;;;;;16.74;100.00;99508.25;6249628;22;20342;-83
2022/09/07 09:43:49;;;;;;;;;;;;;;;16.45;100.00;99511.22;6276268;22;19990;-85
2022/09/07 09:46:24;;;;;;;;;;;;;;;16.73;100.00;99519.91;6276442;22;19918;-84
2022/09/07 09:48:52;;;;;;;;;;;;;;;16.40;100.00;99532.09;6276338;22;19916;-83
2022/09/07 09:51:18;;;;;;;;;;;;;;;16.68;100.00;99524.75;6276692;22;20334;-83
2022/09/07 09:54:12;;;;;;;;;;;;;;;16.46;100.00;99520.09;6274678;22;19961;-85
2022/09/07 09:56:39;;;;;;;;;;;;;;;16.67;100.00;99521.22;6262290;22;19998;-83
2022/09/07 09:59:16;;;;;;;;;;;;;;;16.67;100.00;99520.34;6275985;22;19911;-85
2022/09/07 10:01:42;;;;;;;;;;;;;;;16.62;100.00;99511.81;6276074;22;20309;-82
2022/09/07 10:04:18;;;;;;;;;;;;;;;16.84;100.00;99511.09;6275239;22;20352;-83
2022/09/07 10:06:52;;;;;;;;;;;;;;;16.60;100.00;99503.06;6276064;22;20405;-83
2022/09/07 10:09:19;;;;;;;;;;;;;;;16.85;100.00;99494.97;6274484;22;19911;-82
2022/09/07 10:11:48;;;;;;;;;;;;;;;16.54;100.00;99490.97;6275967;22;19915;-82
2022/09/07 10:14:26;;;;;;;;;;;;;;;16.79;100.00;99500.75;6276177;22;19918;-83
2022/09/07 10:16:51;;;;;;;;;;;;;;;16.64;100.00;99502.72;6276021;22;19915;-86
2022/09/07 10:19:36;;;;;;;;;;;;;;;16.80;100.00;99504.25;6276032;22;19912;-83
2022/09/07 10:22:04;;;;;;;;;;;;;;;16.93;100.00;99491.75;6275616;22;19912;-83
2022/09/07 10:24:36;;;;;;;;;;;;;;;16.76;100.00;99498.28;6274310;22;19920;-83
2022/09/07 10:27:17;;;;;;;;;;;;;;;16.97;100.00;99492.34;6275939;22;19919;-83
2022/09/07 10:29:45;;;;;;;;;;;;;;;16.70;100.00;99490.69;6275824;22;20239;-83
2022/09/07 10:32:17;;;;;;;;;;;;;;;16.94;100.00;99485.41;6276069;22;19968;-83
2022/09/07 10:35:06;;;;;;;;;;;;;;;16.61;100.00;99492.25;6274388;22;19949;-85
2022/09/07 10:37:38;;;;;;;;;;;;;;;16.94;100.00;99485.41;6275751;22;19938;-83
2022/09/07 10:40:18;;;;;;;;;;;;;;;16.69;100.00;99481.00;6274112;22;19957;-82
2022/09/07 10:42:52;;;;;;;;;;;;;;;16.92;100.00;99479.31;6275710;22;20738;-84
2022/09/07 10:45:33;;;;;;;;;;;;;;;16.89;100.00;99479.53;6275681;22;20265;-83
2022/09/07 10:48:13;;;;;;;;;;;;;;;16.86;100.00;99475.28;6275837;22;19911;-84
2022/09/07 10:50:47;;;;;;;;;;;;;;;17.07;100.00;99479.97;6275681;22;20338;-83
2022/09/07 10:53:26;;;;;;;;;;;;;;;16.83;100.00;99482.63;6246935;22;20655;-83
2022/09/07 10:55:51;;;;;;;;;;;;;;;17.09;100.00;99475.41;6275404;22;19923;-84
2022/09/07 10:58:28;;;;;;;;;;;;;;;16.82;100.00;99467.56;6275567;22;19915;-83
2022/09/07 11:01:16;;;;;;;;;;;;;;;17.08;100.00;99462.97;6274433;22;19920;-84
2022/09/07 11:03:42;;;;;;;;;;;;;;;16.85;100.00;99457.50;6275524;22;19923;-84
2022/09/07 11:06:07;;;;;;;;;;;;;;;17.09;100.00;99453.97;6274197;22;20235;-84
2022/09/07 11:08:42;;;;;;;;;;;;;;;17.15;100.00;99448.16;6273813;22;19930;-83
2022/09/07 11:11:08;;;;;;;;;;;;;;;16.98;100.00;99437.88;6276110;22;19911;-84
2022/09/07 11:13:36;;;;;;;;;;;;;;;17.13;100.00;99431.34;6275457;22;20343;-84
2022/09/07 11:16:06;;;;;;;;;;;;;;;16.85;100.00;99430.75;6275561;22;19961;-82
2022/09/07 11:18:36;;;;;;;;;;;;;;;17.28;100.00;99434.69;6274245;22;19918;-82
2022/09/07 11:21:03;;;;;;;;;;;;;;;17.05;100.00;99439.94;6275593;22;19911;-82
2022/09/07 11:23:35;;;;;;;;;;;;;;;16.69;100.00;99438.19;6273929;22;19986;-81
2022/09/07 11:26:06;;;;;;;;;;;;;;;16.62;100.00;99444.94;6274255;22;19916;-81
2022/09/07 11:29:07;;;;;;;;;;;;;;;16.23;100.00;99442.38;6275588;22;20069;-83
2022/09/07 11:31:36;;;;;;;;;;;;;;;16.47;100.00;99430.88;6211620;23;19916;-81
2022/09/07 11:34:13;;;;;;;;;;;;;;;16.18;100.00;99431.19;6237740;22;19968;-82
2022/09/07 11:36:45;;;;;;;;;;;;;;;16.48;100.00;99420.09;6277552;22;19911;-82
2022/09/07 11:39:15;;;;;;;;;;;;;;;16.32;100.00;99425.69;6276125;22;20311;-83
2022/09/07 11:41:44;;;;;;;;;;;;;;;16.45;100.00;99425.66;6276002;22;19918;-81
2022/09/07 11:44:22;;;;;;;;;;;;;;;16.63;100.00;99427.94;6277602;22;20215;-83
2022/09/07 11:46:52;;;;;;;;;;;;;;;16.37;100.00;99429.84;6277394;22;19911;-82
2022/09/07 11:49:19;;;;;;;;;;;;;;;16.61;100.00;99425.38;6277506;22;19930;-83
2022/09/07 11:51:48;;;;;;;;;;;;;;;16.33;100.00;99430.06;6277331;22;19995;-83
2022/09/07 11:54:28;;;;;;;;;;;;;;;16.58;100.00;99428.28;6275691;22;19961;-82
2022/09/07 11:57:04;;;;;;;;;;;;;;;16.61;100.00;99428.06;6276098;22;19990;-84
2022/09/07 11:59:35;;;;;;;;;;;;;;;16.51;100.00;99416.31;6277314;22;19915;-83
2022/09/07 12:02:00;;;;;;;;;;;;;;;16.70;100.00;99419.34;6277293;22;19962;-82
2022/09/07 12:04:28;;;;;;;;;;;;;;;16.42;100.00;99411.63;6277229;22;19911;-82
2022/09/07 12:06:53;;;;;;;;;;;;;;;16.64;100.00;99410.91;6277200;22;19926;-82
2022/09/07 12:09:28;;;;;;;;;;;;;;;16.47;100.00;99402.31;6274065;22;20319;-82
2022/09/07 12:12:17;;;;;;;;;;;;;;;16.59;100.00;99405.91;6277180;22;19911;-83
2022/09/07 12:14:51;;;;;;;;;;;;;;;16.73;100.00;99402.22;6276982;22;19915;-83
2022/09/07 12:17:17;;;;;;;;;;;;;;;16.55;100.00;99398.25;6277284;22;19918;-84
2022/09/07 12:19:42;;;;;;;;;;;;;;;16.71;100.00;99399.66;6277015;22;19946;-83
2022/09/07 12:22:19;;;;;;;;;;;;;;;16.40;100.00;99385.03;6277043;22;19922;-84
2022/09/07 12:24:44;;;;;;;;;;;;;;;16.65;100.00;99385.88;6274181;22;19912;-83
2022/09/07 12:27:19;;;;;;;;;;;;;;;16.55;100.00;99380.38;6276936;22;19912;-84
2022/09/07 12:29:45;;;;;;;;;;;;;;;16.53;100.00;99385.81;6277043;22;19911;-84
2022/09/07 12:32:11;;;;;;;;;;;;;;;16.74;100.00;99378.97;6250362;22;20323;-84
2022/09/07 12:37:40;;;;;;;;;;;;;;;16.69;100.00;99379.34;6276870;22;19915;-83
2022/09/07 12:40:24;;;;;;;;;;;;;;;16.36;100.00;99372.00;6275434;22;19942;-84
2022/09/07 12:43:12;;;;;;;;;;;;;;;16.67;100.00;99370.56;6275629;22;19954;-83
2022/09/07 12:45:37;;;;;;;;;;;;;;;16.39;100.00;99369.09;6276608;22;19911;-83
2022/09/07 12:48:18;;;;;;;;;;;;;;;16.59;100.00;99356.91;6276705;22;19911;-83
2022/09/07 12:50:55;;;;;;;;;;;;;;;16.75;100.00;99365.47;6276741;22;19911;-84
2022/09/07 12:53:37;;;;;;;;;;;;;;;16.55;100.00;99368.81;6273867;22;19969;-83
2022/09/07 12:56:21;;;;;;;;;;;;;;;16.77;100.00;99378.75;6276611;22;19945;-84
2022/09/07 12:59:07;;;;;;;;;;;;;;;16.49;100.00;99387.00;6276608;22;19911;-84
2022/09/07 13:01:51;;;;;;;;;;;;;;;16.93;100.00;99389.19;6276740;22;19911;-84
2022/09/07 13:04:33;;;;;;;;;;;;;;;16.44;100.00;99386.50;6276845;22;19934;-82
2022/09/07 13:07:08;;;;;;;;;;;;;;;16.39;100.00;99377.97;6276872;22;19911;-83
2022/09/07 13:09:35;;;;;;;;;;;;;;;16.01;100.00;99373.59;6274974;22;19942;-83
2022/09/07 13:12:03;;;;;;;;;;;;;;;16.15;100.00;99373.44;6276669;22;20338;-85
2022/09/07 13:14:31;;;;;;;;;;;;;;;16.20;100.00;99370.44;6277159;22;19911;-85
2022/09/07 13:17:15;;;;;;;;;;;;;;;16.02;100.00;99366.41;6276571;22;20216;-86
2022/09/07 13:19:49;;;;;;;;;;;;;;;16.21;100.00;99365.94;6276410;22;19915;-84
2022/09/07 13:22:30;;;;;;;;;;;;;;;15.96;100.00;99363.22;6276933;22;19922;-83
2022/09/07 13:24:59;;;;;;;;;;;;;;;16.21;100.00;99358.78;6273356;22;19919;-83
2022/09/07 13:27:43;;;;;;;;;;;;;;;15.91;100.00;99351.19;6276907;22;19990;-83
2022/09/07 13:30:15;;;;;;;;;;;;;;;16.20;100.00;99337.53;6276578;22;19998;-83
2022/09/07 13:32:41;;;;;;;;;;;;;;;15.92;100.00;99334.16;6276461;22;19912;-83
2022/09/07 13:35:20;;;;;;;;;;;;;;;16.19;100.00;99330.47;6276448;22;19915;-83
2022/09/07 13:37:53;;;;;;;;;;;;;;;16.30;100.00;99311.81;6276419;22;20335;-83
2022/09/07 13:40:26;;;;;;;;;;;;;;;16.13;100.00;99313.03;6275014;22;19965;-83
2022/09/07 13:42:53;;;;;;;;;;;;;;;16.33;100.00;99314.25;6276305;22;19922;-82
2022/09/07 13:45:29;;;;;;;;;;;;;;;15.98;100.00;99317.69;6276251;22;19907;-83
2022/09/07 13:48:15;;;;;;;;;;;;;;;16.28;100.00;99325.28;6276669;22;20247;-82
2022/09/07 13:51:02;;;;;;;;;;;;;;;15.94;100.00;99300.19;6248561;22;19935;-86
2022/09/07 13:53:37;;;;;;;;;;;;;;;16.27;100.00;99286.16;6274628;22;20327;-84
2022/09/07 13:56:11;;;;;;;;;;;;;;;16.15;100.00;99281.72;6275900;22;19919;-82
2022/09/07 13:58:40;;;;;;;;;;;;;;;16.23;100.00;99289.19;6274292;22;19921;-82
2022/09/07 14:01:11;;;;;;;;;;;;;;;16.41;100.00;99286.94;6276010;22;19982;-82
2022/09/07 14:03:42;;;;;;;;;;;;;;;16.10;100.00;99279.41;6276192;22;19919;-83
2022/09/07 14:06:14;;;;;;;;;;;;;;;16.39;100.00;99286.22;6274662;22;20239;-82
2022/09/07 14:08:40;;;;;;;;;;;;;;;16.07;100.00;99289.47;6274583;22;20362;-82
2022/09/07 14:11:25;;;;;;;;;;;;;;;16.33;100.00;99284.84;6276101;22;19943;-83
2022/09/07 14:14:09;;;;;;;;;;;;;;;16.33;100.00;99283.03;6264722;22;19923;-83
2022/09/07 14:16:35;;;;;;;;;;;;;;;16.30;100.00;99285.91;6274969;22;19982;-83
2022/09/07 14:19:01;;;;;;;;;;;;;;;16.46;100.00;99285.63;6275947;22;19950;-81
2022/09/07 14:21:26;;;;;;;;;;;;;;;16.16;100.00;99294.09;6276052;22;19922;-81
2022/09/07 14:23:51;;;;;;;;;;;;;;;16.42;100.00;99302.88;6274383;22;19915;-82
2022/09/07 14:26:19;;;;;;;;;;;;;;;16.06;100.00;99309.13;6248770;22;19934;-84
2022/09/07 14:28:45;;;;;;;;;;;;;;;16.33;100.00;99323.13;6275939;22;19922;-82
2022/09/07 14:31:11;;;;;;;;;;;;;;;16.48;100.00;99323.81;6275712;22;19918;-82
2022/09/07 14:33:37;;;;;;;;;;;;;;;16.29;100.00;99320.78;6275938;22;19918;-83
2022/09/07 14:36:03;;;;;;;;;;;;;;;16.52;100.00;99322.59;6275818;22;20235;-83
2022/09/07 14:38:30;;;;;;;;;;;;;;;16.17;100.00;99318.06;6274189;22;20366;-83
2022/09/07 14:40:58;;;;;;;;;;;;;;;16.43;100.00;99303.72;6275632;22;19960;-83
2022/09/07 14:43:28;;;;;;;;;;;;;;;16.36;100.00;99295.31;6276280;22;19992;-84
2022/09/07 14:46:04;;;;;;;;;;;;;;;16.50;100.00;99289.78;6275688;22;20323;-83
2022/09/07 14:48:29;;;;;;;;;;;;;;;16.57;100.00;99283.97;6275748;22;20000;-84
2022/09/07 14:50:54;;;;;;;;;;;;;;;16.44;100.00;99271.53;6275683;22;20247;-83
2022/09/07 14:53:20;;;;;;;;;;;;;;;16.70;100.00;99271.38;6272427;22;20292;-82
2022/09/07 14:55:45;;;;;;;;;;;;;;;16.41;100.00;99298.50;6275587;22;19920;-83
2022/09/07 14:58:47;;;;;;;;;;;;;;;;;;;;;
2022/09/07 15:01:13;;;;;;;;;;;;;;;16.53;100.00;99307.44;6275702;22;19990;-83
2022/09/07 15:03:40;;;;;;;;;;;;;;;16.49;100.00;99290.75;6275952;22;19943;-85
2022/09/07 15:06:07;;;;;;;;;;;;;;;16.68;100.00;99292.03;6275539;22;19912;-83
2022/09/07 15:08:40;;;;;;;;;;;;;;;16.40;100.00;99291.47;6273848;22;20337;-83
2022/09/07 15:11:05;;;;;;;;;;;;;;;16.67;100.00;99291.19;6275373;22;19919;-83
2022/09/07 15:13:33;;;;;;;;;;;;;;;16.42;100.00;99289.50;6274415;22;19920;-83
2022/09/07 15:16:01;;;;;;;;;;;;;;;16.59;100.00;99284.69;6275517;22;19986;-83
2022/09/07 15:18:56;;;;;;;;;;;;;;;16.76;100.00;99281.59;6275442;22;19911;-82
2022/09/07 15:21:22;;;;;;;;;;;;;;;16.55;100.00;99276.06;6275800;22;20038;-82
2022/09/07 15:23:49;;;;;;;;;;;;;;;16.75;100.00;99279.88;6274092;22;19912;-82
2022/09/07 15:26:17;;;;;;;;;;;;;;;16.40;100.00;99275.41;6274110;22;20017;-84
2022/09/07 15:28:42;;;;;;;;;;;;;;;16.68;100.00;99258.09;6273769;22;20286;-83
2022/09/07 15:31:09;;;;;;;;;;;;;;;16.59;100.00;99263.31;6272936;22;19911;-83
2022/09/07 15:33:34;;;;;;;;;;;;;;;16.60;100.00;99259.69;6274867;22;20371;-82
2022/09/07 15:36:00;;;;;;;;;;;;;;;16.81;100.00;99260.69;6273222;22;19949;-85
2022/09/07 15:38:25;;;;;;;;;;;;;;;16.50;100.00;99255.03;6273660;22;20366;-82
2022/09/07 15:40:54;;;;;;;;;;;;;;;16.76;100.00;99249.50;6274378;22;19918;-82
2022/09/07 15:43:20;;;;;;;;;;;;;;;16.51;100.00;99253.19;6248031;22;20002;-85
2022/09/07 15:45:46;;;;;;;;;;;;;;;16.69;100.00;99258.97;6275256;22;19969;-83
2022/09/07 15:48:28;;;;;;;;;;;;;;;16.85;100.00;99254.19;6275317;22;19911;-85
2022/09/07 15:51:01;;;;;;;;;;;;;;;16.67;100.00;99259.09;6248280;22;19915;-82
2022/09/07 15:53:27;;;;;;;;;;;;;;;16.85;100.00;99269.34;6273948;22;20234;-82
2022/09/07 15:55:54;;;;;;;;;;;;;;;16.50;100.00;99265.72;6274117;22;19927;-82
2022/09/07 15:58:19;;;;;;;;;;;;;;;16.77;100.00;99259.25;6247653;22;20231;-84
2022/09/07 16:00:52;;;;;;;;;;;;;;;16.67;100.00;99261.78;6274919;22;19916;-86
2022/09/07 16:03:19;;;;;;;;;;;;;;;16.74;100.00;99261.28;6273631;22;20246;-86
2022/09/07 16:05:45;;;;;;;;;;;;;;;16.91;100.00;99250.16;6274947;22;19916;-83
2022/09/07 16:08:11;;;;;;;;;;;;;;;16.61;100.00;99232.81;6273217;22;19981;-83
2022/09/07 16:10:36;;;;;;;;;;;;;;;16.88;100.00;99237.88;6273902;22;19958;-82
2022/09/07 16:13:02;;;;;;;;;;;;;;;16.56;100.00;99237.69;6273662;22;19926;-83
2022/09/07 16:15:27;;;;;;;;;;;;;;;16.80;100.00;99242.09;6274175;22;20274;-82
2022/09/07 16:17:52;;;;;;;;;;;;;;;16.98;100.00;99239.84;6274706;22;19911;-83
2022/09/07 16:20:18;;;;;;;;;;;;;;;16.70;100.00;99234.78;6275378;22;19915;-84
2022/09/07 16:22:44;;;;;;;;;;;;;;;16.94;100.00;99227.66;6277010;22;19911;-86
2022/09/07 16:25:09;;;;;;;;;;;;;;;16.63;100.00;99230.03;6275367;22;20216;-82
2022/09/07 16:27:34;;;;;;;;;;;;;;;16.86;100.00;99213.09;6276564;22;19917;-82
2022/09/07 16:29:59;;;;;;;;;;;;;;;16.88;100.00;99216.47;6276527;22;19915;-82
2022/09/07 16:32:25;;;;;;;;;;;;;;;16.79;100.00;99222.50;6277102;22;19911;-82
2022/09/07 16:34:52;;;;;;;;;;;;;;;16.98;100.00;99221.13;6276376;22;19912;-82
2022/09/07 16:37:18;;;;;;;;;;;;;;;16.68;100.00;99220.66;6276211;22;19911;-83
2022/09/07 16:39:43;;;;;;;;;;;;;;;16.93;100.00;99212.56;6273657;22;20402;-82
2022/09/07 16:42:08;;;;;;;;;;;;;;;16.78;100.00;99212.78;6276324;22;19911;-84
2022/09/07 16:44:34;;;;;;;;;;;;;;;16.84;100.00;99204.28;6275310;22;19913;-82
2022/09/07 16:46:59;;;;;;;;;;;;;;;17.01;100.00;99200.31;6275757;22;19946;-82
2022/09/07 16:49:27;;;;;;;;;;;;;;;16.70;100.00;99209.84;6276781;22;19922;-84
2022/09/07 16:51:52;;;;;;;;;;;;;;;16.95;100.00;99218.69;6275118;22;19915;-82
2022/09/07 16:54:17;;;;;;;;;;;;;;;16.64;100.00;99213.00;6274816;22;20354;-83
2022/09/07 16:56:42;;;;;;;;;;;;;;;16.84;100.00;99206.94;6276187;22;20009;-82
2022/09/07 16:59:09;;;;;;;;;;;;;;;17.04;100.00;99212.59;6276653;22;19915;-84
2022/09/07 17:01:36;;;;;;;;;;;;;;;16.77;100.00;99204.88;6275721;22;19912;-86
2022/09/07 17:04:02;;;;;;;;;;;;;;;16.99;100.00;99196.91;6276199;22;19916;-81
2022/09/07 17:06:31;;;;;;;;;;;;;;;16.68;100.00;99193.06;6276737;22;20025;-82
2022/09/07 17:08:58;;;;;;;;;;;;;;;16.93;100.00;99197.41;6273537;22;19922;-82
2022/09/07 17:11:25;;;;;;;;;;;;;;;17.21;100.00;99188.00;6248455;22;19915;-83
2022/09/07 17:13:51;;;;;;;;;;;;;;;16.61;100.00;99186.47;6276447;22;19915;-83
2022/09/07 17:16:18;;;;;;;;;;;;;;;16.52;100.00;99194.25;6276674;22;20305;-83
2022/09/07 17:18:44;;;;;;;;;;;;;;;16.14;100.00;99200.69;6275573;22;19911;-83
2022/09/07 17:21:09;;;;;;;;;;;;;;;16.33;100.00;99210.00;6275684;22;19915;-83
2022/09/07 17:23:34;;;;;;;;;;;;;;;16.11;100.00;99216.09;6274467;22;20013;-84
2022/09/07 17:26:03;;;;;;;;;;;;;;;16.20;100.00;99219.94;6276665;22;19946;-84
2022/09/07 17:28:29;;;;;;;;;;;;;;;16.43;100.00;99227.03;6276176;22;19922;-84
2022/09/07 17:30:54;;;;;;;;;;;;;;;16.13;100.00;99225.72;6276366;22;19915;-84
2022/09/07 17:33:19;;;;;;;;;;;;;;;16.41;100.00;99220.13;6274411;22;19919;-84
2022/09/07 17:35:45;;;;;;;;;;;;;;;16.16;100.00;99216.59;6272751;22;19921;-83
2022/09/07 17:38:11;;;;;;;;;;;;;;;16.38;100.00;99210.50;6273666;22;19916;-83
2022/09/07 17:40:37;;;;;;;;;;;;;;;16.58;100.00;99200.97;6248541;22;19911;-84
2022/09/07 17:43:02;;;;;;;;;;;;;;;16.36;100.00;99196.41;6276869;22;19918;-83
2022/09/07 17:45:28;;;;;;;;;;;;;;;16.59;100.00;99189.28;6274143;22;20212;-83
2022/09/07 17:47:56;;;;;;;;;;;;;;;16.25;100.00;99191.88;6275115;22;19918;-83
2022/09/07 17:50:21;;;;;;;;;;;;;;;16.57;100.00;99191.22;6275183;22;19986;-83
2022/09/07 17:53:00;;;;;;;;;;;;;;;;;;;;;
2022/09/07 17:55:25;;;;;;;;;;;;;;;16.50;100.00;99185.50;6275085;22;20398;-83
2022/09/07 17:57:50;;;;;;;;;;;;;;;16.72;100.00;99189.19;6275623;22;19951;-83
2022/09/07 18:00:16;;;;;;;;;;;;;;;16.42;100.00;99162.97;6276145;22;20373;-84
2022/09/07 18:02:41;;;;;;;;;;;;;;;16.66;100.00;99149.56;6275809;22;19998;-84
2022/09/07 18:05:06;;;;;;;;;;;;;;;16.33;100.00;99154.69;6275635;22;19915;-83
2022/09/07 18:07:32;;;;;;;;;;;;;;;16.62;100.00;99156.09;6275329;22;19938;-83
2022/09/07 18:09:57;;;;;;;;;;;;;;;16.64;100.00;99156.81;6274099;22;19912;-82
2022/09/07 18:12:22;;;;;;;;;;;;;;;16.50;100.00;99152.56;6248159;22;19990;-82
2022/09/07 18:14:48;;;;;;;;;;;;;;;16.74;100.00;99156.94;6276138;22;19915;-83
2022/09/07 18:17:13;;;;;;;;;;;;;;;16.41;100.00;99159.47;6275210;22;19915;-84
2022/09/07 18:19:38;;;;;;;;;;;;;;;16.69;100.00;99149.31;6274508;22;19915;-84
2022/09/07 18:22:04;;;;;;;;;;;;;;;16.48;100.00;99163.38;6275425;22;20324;-84
2022/09/07 18:24:30;;;;;;;;;;;;;;;16.64;100.00;99159.50;6245720;22;19911;-86
2022/09/07 18:26:55;;;;;;;;;;;;;;;16.79;100.00;99155.63;6274089;22;19916;-85
2022/09/07 18:29:22;;;;;;;;;;;;;;;16.55;100.00;99157.56;6275943;22;19911;-82
2022/09/07 18:31:47;;;;;;;;;;;;;;;16.78;100.00;99150.41;6275372;22;19998;-83
2022/09/07 18:34:12;;;;;;;;;;;;;;;16.44;100.00;99143.19;6273729;22;20364;-83
2022/09/07 18:36:39;;;;;;;;;;;;;;;16.74;100.00;99139.09;6274225;22;19957;-82
2022/09/07 18:39:05;;;;;;;;;;;;;;;16.70;100.00;99156.34;6273697;22;19939;-82
2022/09/07 18:41:30;;;;;;;;;;;;;;;16.66;100.00;99157.56;6274835;22;19915;-87
2022/09/07 18:43:58;;;;;;;;;;;;;;;16.89;100.00;99155.78;6275142;22;19966;-84
2022/09/07 18:46:23;;;;;;;;;;;;;;;16.60;100.00;99158.06;6275651;22;19911;-83
2022/09/07 18:48:49;;;;;;;;;;;;;;;16.86;100.00;99148.00;6248217;22;19958;-82
2022/09/07 18:51:15;;;;;;;;;;;;;;;16.55;100.00;99161.09;6275806;22;19994;-83
2022/09/07 18:53:40;;;;;;;;;;;;;;;16.80;100.00;99146.66;6273239;22;19980;-84
2022/09/07 18:56:07;;;;;;;;;;;;;;;16.95;100.00;99127.72;6248268;22;20501;-82
2022/09/07 18:58:33;;;;;;;;;;;;;;;16.75;100.00;99138.09;6274981;22;20347;-79
2022/09/07 19:01:07;;;;;;;;;;;;;;;16.94;100.00;99124.16;6275063;22;19915;-81
2022/09/07 19:03:34;;;;;;;;;;;;;;;16.62;100.00;99124.84;6274883;22;19911;-81
2022/09/07 19:06:00;;;;;;;;;;;;;;;16.91;100.00;99113.69;6248417;22;20315;-81
2022/09/07 19:08:29;;;;;;;;;;;;;;;16.73;100.00;99117.81;6272915;22;19922;-82
2022/09/07 19:10:54;;;;;;;;;;;;;;;16.85;100.00;99112.38;6247105;22;19934;-81
2022/09/07 19:13:19;;;;;;;;;;;;;;;17.02;100.00;99120.88;6274840;22;20327;-80
2022/09/07 19:15:45;;;;;;;;;;;;;;;16.74;100.00;99117.69;6274115;22;19915;-80
2022/09/07 19:18:10;;;;;;;;;;;;;;;17.00;100.00;99112.13;6274895;22;19911;-80
2022/09/07 19:20:35;;;;;;;;;;;;;;;16.64;100.00;99133.63;6274610;22;19921;-83
2022/09/07 19:23:01;;;;;;;;;;;;;;;16.93;100.00;99126.97;6273976;22;19965;-82
2022/09/07 19:25:26;;;;;;;;;;;;;;;16.94;100.00;99128.66;6274602;22;19933;-82
2022/09/07 19:27:52;;;;;;;;;;;;;;;16.83;100.00;99127.69;6275448;22;19919;-82
2022/09/07 19:30:17;;;;;;;;;;;;;;;17.05;100.00;99121.47;6274926;22;20298;-83
2022/09/07 19:32:42;;;;;;;;;;;;;;;16.73;100.00;99121.34;6274204;22;19923;-82
2022/09/07 19:35:08;;;;;;;;;;;;;;;16.99;100.00;99121.13;6273128;22;19911;-82
2022/09/07 19:37:33;;;;;;;;;;;;;;;16.77;100.00;99117.47;6273668;22;20315;-81
2022/09/07 19:40:01;;;;;;;;;;;;;;;16.94;100.00;99112.63;6273636;22;19911;-85
2022/09/07 19:42:27;;;;;;;;;;;;;;;17.10;100.00;99113.06;6274418;22;19942;-85
2022/09/07 19:44:53;;;;;;;;;;;;;;;16.87;100.00;99113.09;6274956;22;19911;-84
2022/09/07 19:47:18;;;;;;;;;;;;;;;17.08;100.00;99106.16;6275406;22;20038;-81
2022/09/07 19:49:43;;;;;;;;;;;;;;;16.77;100.00;99108.56;6248321;22;19915;-81
2022/09/07 19:52:09;;;;;;;;;;;;;;;17.02;100.00;99102.13;6274950;22;19912;-81
2022/09/07 19:54:35;;;;;;;;;;;;;;;16.84;100.00;99107.97;6273377;22;19919;-83
2022/09/07 19:57:00;;;;;;;;;;;;;;;16.99;100.00;99105.06;6275349;22;19911;-81
2022/09/07 19:59:26;;;;;;;;;;;;;;;17.16;100.00;99101.03;6276338;22;19989;-81
2022/09/07 20:01:52;;;;;;;;;;;;;;;16.93;100.00;99097.53;6276363;22;19923;-83
2022/09/07 20:04:18;;;;;;;;;;;;;;;17.19;100.00;99093.59;6276381;22;19911;-81
2022/09/07 20:06:45;;;;;;;;;;;;;;;16.91;100.00;99088.78;6276766;22;19911;-83
2022/09/07 20:09:12;;;;;;;;;;;;;;;17.19;100.00;99074.88;6275812;22;19912;-81
2022/09/07 20:11:37;;;;;;;;;;;;;;;16.94;100.00;99080.50;6276345;22;19919;-83
2022/09/07 20:14:03;;;;;;;;;;;;;;;17.14;100.00;99073.56;6276531;22;19938;-82
2022/09/07 20:16:29;;;;;;;;;;;;;;;17.31;100.00;99080.19;6276978;22;19942;-81
2022/09/07 20:18:55;;;;;;;;;;;;;;;17.05;100.00;99099.22;6277396;22;19915;-81
2022/09/07 20:21:21;;;;;;;;;;;;;;;17.30;100.00;99097.25;6277078;22;19915;-82
2022/09/07 20:23:47;;;;;;;;;;;;;;;16.87;100.00;99102.41;6247489;22;19950;-82
2022/09/07 20:26:13;;;;;;;;;;;;;;;17.13;100.00;99103.97;6276199;22;19969;-83
2022/09/07 20:28:39;;;;;;;;;;;;;;;16.83;100.00;99100.94;6276479;22;19982;-84
2022/09/07 20:31:15;;;;;;;;;;;;;;;17.07;100.00;99105.28;6275836;22;19916;-84
2022/09/07 20:33:41;;;;;;;;;;;;;;;17.10;100.00;99110.41;6276356;22;20458;-82
2022/09/07 20:36:07;;;;;;;;;;;;;;;17.03;100.00;99107.38;6277046;22;19941;-83
2022/09/07 20:38:40;;;;;;;;;;;;;;;17.21;100.00;99105.03;6247629;22;20327;-84
2022/09/07 20:41:06;;;;;;;;;;;;;;;16.92;100.00;99103.88;6274269;22;19922;-82
2022/09/07 20:43:33;;;;;;;;;;;;;;;17.13;100.00;99104.78;6276985;22;19920;-88
2022/09/07 20:45:58;;;;;;;;;;;;;;;16.82;100.00;99117.94;6274703;22;19994;-81